sensor_id;sensor_type;location;lat;lon;timestamp;P1;durP1;ratioP1;P2;durP2;ratioP2
21424;SDS011;10873;51.132;16.848;2023-05-19T00:01:34;3.40;;;2.53;;
21424;SDS011;10873;51.132;16.848;2023-05-19T00:04:01;4.28;;;2.20;;
21424;SDS011;10873;51.132;16.848;2023-05-19T00:06:30;3.17;;;2.33;;
21424;SDS011;10873;51.132;16.848;2023-05-19T00:08:57;3.60;;;2.63;;
21424;SDS011;10873;51.132;16.848;2023-05-19T00:11:27;4.32;;;2.67;;
21424;SDS011;10873;51.132;16.848;2023-05-19T00:13:53;4.10;;;2.72;;
21424;SDS011;10873;51.132;16.848;2023-05-19T00:16:21;5.43;;;2.70;;
21424;SDS011;10873;51.132;16.848;2023-05-19T00:18:50;3.05;;;2.60;;
21424;SDS011;10873;51.132;16.848;2023-05-19T00:21:17;4.10;;;2.33;;
21424;SDS011;10873;51.132;16.848;2023-05-19T00:23:43;4.22;;;2.58;;
21424;SDS011;10873;51.132;16.848;2023-05-19T00:26:10;3.42;;;2.22;;
21424;SDS011;10873;51.132;16.848;2023-05-19T00:28:37;4.78;;;2.50;;
21424;SDS011;10873;51.132;16.848;2023-05-19T00:31:04;3.65;;;2.55;;
21424;SDS011;10873;51.132;16.848;2023-05-19T00:33:30;4.35;;;2.75;;
21424;SDS011;10873;51.132;16.848;2023-05-19T00:35:58;3.20;;;2.28;;
21424;SDS011;10873;51.132;16.848;2023-05-19T00:38:24;4.55;;;2.67;;
21424;SDS011;10873;51.132;16.848;2023-05-19T00:40:50;4.18;;;2.45;;
21424;SDS011;10873;51.132;16.848;2023-05-19T00:43:16;5.18;;;2.47;;
21424;SDS011;10873;51.132;16.848;2023-05-19T00:45:44;3.55;;;2.40;;
21424;SDS011;10873;51.132;16.848;2023-05-19T00:48:11;4.68;;;2.40;;
21424;SDS011;10873;51.132;16.848;2023-05-19T00:50:37;3.20;;;2.20;;
21424;SDS011;10873;51.132;16.848;2023-05-19T00:53:03;4.20;;;2.22;;
21424;SDS011;10873;51.132;16.848;2023-05-19T00:55:29;3.45;;;2.35;;
21424;SDS011;10873;51.132;16.848;2023-05-19T00:57:57;5.38;;;2.22;;
21424;SDS011;10873;51.132;16.848;2023-05-19T01:00:24;3.58;;;2.45;;
21424;SDS011;10873;51.132;16.848;2023-05-19T01:02:51;3.08;;;1.98;;
21424;SDS011;10873;51.132;16.848;2023-05-19T01:05:18;3.05;;;2.40;;
21424;SDS011;10873;51.132;16.848;2023-05-19T01:07:44;3.58;;;2.65;;
21424;SDS011;10873;51.132;16.848;2023-05-19T01:10:11;3.13;;;2.30;;
21424;SDS011;10873;51.132;16.848;2023-05-19T01:12:38;3.70;;;2.38;;
21424;SDS011;10873;51.132;16.848;2023-05-19T01:15:05;3.88;;;2.30;;
21424;SDS011;10873;51.132;16.848;2023-05-19T01:17:32;3.10;;;2.17;;
21424;SDS011;10873;51.132;16.848;2023-05-19T01:20:07;4.78;;;2.58;;
21424;SDS011;10873;51.132;16.848;2023-05-19T01:25:51;3.65;;;2.50;;
21424;SDS011;10873;51.132;16.848;2023-05-19T01:28:47;2.75;;;2.10;;
21424;SDS011;10873;51.132;16.848;2023-05-19T01:31:28;3.83;;;2.30;;
21424;SDS011;10873;51.132;16.848;2023-05-19T01:33:55;4.03;;;2.50;;
21424;SDS011;10873;51.132;16.848;2023-05-19T01:36:22;3.13;;;2.30;;
21424;SDS011;10873;51.132;16.848;2023-05-19T01:38:51;4.30;;;2.42;;
21424;SDS011;10873;51.132;16.848;2023-05-19T01:41:20;3.22;;;2.17;;
21424;SDS011;10873;51.132;16.848;2023-05-19T01:43:47;3.10;;;1.92;;
21424;SDS011;10873;51.132;16.848;2023-05-19T01:46:14;3.42;;;2.35;;
21424;SDS011;10873;51.132;16.848;2023-05-19T01:48:42;2.92;;;2.08;;
21424;SDS011;10873;51.132;16.848;2023-05-19T01:51:09;2.55;;;2.10;;
21424;SDS011;10873;51.132;16.848;2023-05-19T01:53:35;6.63;;;2.50;;
21424;SDS011;10873;51.132;16.848;2023-05-19T01:56:01;3.60;;;2.40;;
21424;SDS011;10873;51.132;16.848;2023-05-19T01:58:30;3.85;;;2.47;;
21424;SDS011;10873;51.132;16.848;2023-05-19T02:01:08;2.83;;;2.00;;
21424;SDS011;10873;51.132;16.848;2023-05-19T02:03:44;2.88;;;2.28;;
21424;SDS011;10873;51.132;16.848;2023-05-19T02:06:25;3.97;;;2.75;;
21424;SDS011;10873;51.132;16.848;2023-05-19T02:08:57;4.32;;;2.35;;
21424;SDS011;10873;51.132;16.848;2023-05-19T02:11:30;3.00;;;2.35;;
21424;SDS011;10873;51.132;16.848;2023-05-19T02:14:02;4.63;;;2.75;;
21424;SDS011;10873;51.132;16.848;2023-05-19T02:16:36;2.92;;;2.22;;
21424;SDS011;10873;51.132;16.848;2023-05-19T02:19:04;6.13;;;2.50;;
21424;SDS011;10873;51.132;16.848;2023-05-19T02:21:31;4.03;;;2.75;;
21424;SDS011;10873;51.132;16.848;2023-05-19T02:23:56;4.07;;;2.72;;
21424;SDS011;10873;51.132;16.848;2023-05-19T02:26:23;4.15;;;2.65;;
21424;SDS011;10873;51.132;16.848;2023-05-19T02:28:49;4.07;;;2.75;;
21424;SDS011;10873;51.132;16.848;2023-05-19T02:31:15;5.78;;;2.45;;
21424;SDS011;10873;51.132;16.848;2023-05-19T02:33:41;3.65;;;2.83;;
21424;SDS011;10873;51.132;16.848;2023-05-19T02:36:08;4.43;;;2.70;;
21424;SDS011;10873;51.132;16.848;2023-05-19T02:38:34;3.80;;;2.90;;
21424;SDS011;10873;51.132;16.848;2023-05-19T02:41:01;4.53;;;2.83;;
21424;SDS011;10873;51.132;16.848;2023-05-19T02:43:27;5.32;;;2.70;;
21424;SDS011;10873;51.132;16.848;2023-05-19T02:45:54;5.13;;;2.70;;
21424;SDS011;10873;51.132;16.848;2023-05-19T02:48:20;5.25;;;3.00;;
21424;SDS011;10873;51.132;16.848;2023-05-19T02:50:46;3.97;;;2.60;;
21424;SDS011;10873;51.132;16.848;2023-05-19T02:53:14;4.80;;;2.75;;
21424;SDS011;10873;51.132;16.848;2023-05-19T02:55:40;3.50;;;2.58;;
21424;SDS011;10873;51.132;16.848;2023-05-19T02:58:06;3.28;;;2.40;;
21424;SDS011;10873;51.132;16.848;2023-05-19T03:00:33;3.83;;;2.58;;
21424;SDS011;10873;51.132;16.848;2023-05-19T03:02:58;4.13;;;2.85;;
21424;SDS011;10873;51.132;16.848;2023-05-19T03:05:27;5.07;;;3.05;;
21424;SDS011;10873;51.132;16.848;2023-05-19T03:07:54;4.32;;;2.80;;
21424;SDS011;10873;51.132;16.848;2023-05-19T03:10:21;4.38;;;2.45;;
21424;SDS011;10873;51.132;16.848;2023-05-19T03:12:47;4.95;;;2.97;;
21424;SDS011;10873;51.132;16.848;2023-05-19T03:15:13;4.35;;;2.78;;
21424;SDS011;10873;51.132;16.848;2023-05-19T03:17:40;5.32;;;3.10;;
21424;SDS011;10873;51.132;16.848;2023-05-19T03:20:07;3.60;;;2.28;;
21424;SDS011;10873;51.132;16.848;2023-05-19T03:22:34;9.77;;;2.72;;
21424;SDS011;10873;51.132;16.848;2023-05-19T03:25:01;3.72;;;2.55;;
21424;SDS011;10873;51.132;16.848;2023-05-19T03:27:28;4.40;;;2.67;;
21424;SDS011;10873;51.132;16.848;2023-05-19T03:29:55;4.68;;;2.60;;
21424;SDS011;10873;51.132;16.848;2023-05-19T03:32:20;4.95;;;2.78;;
21424;SDS011;10873;51.132;16.848;2023-05-19T03:34:47;3.75;;;2.78;;
21424;SDS011;10873;51.132;16.848;2023-05-19T03:37:12;4.53;;;2.75;;
21424;SDS011;10873;51.132;16.848;2023-05-19T03:39:39;4.35;;;2.85;;
21424;SDS011;10873;51.132;16.848;2023-05-19T03:42:05;3.20;;;2.65;;
21424;SDS011;10873;51.132;16.848;2023-05-19T03:44:32;6.32;;;3.00;;
21424;SDS011;10873;51.132;16.848;2023-05-19T03:46:58;4.13;;;3.00;;
21424;SDS011;10873;51.132;16.848;2023-05-19T03:49:24;4.47;;;2.90;;
21424;SDS011;10873;51.132;16.848;2023-05-19T03:51:50;5.53;;;2.85;;
21424;SDS011;10873;51.132;16.848;2023-05-19T03:54:16;3.53;;;2.63;;
21424;SDS011;10873;51.132;16.848;2023-05-19T03:56:43;5.35;;;3.15;;
21424;SDS011;10873;51.132;16.848;2023-05-19T03:59:09;6.07;;;2.65;;
21424;SDS011;10873;51.132;16.848;2023-05-19T04:01:37;3.05;;;2.50;;
21424;SDS011;10873;51.132;16.848;2023-05-19T04:04:03;6.05;;;3.08;;
21424;SDS011;10873;51.132;16.848;2023-05-19T04:06:29;5.10;;;3.28;;
21424;SDS011;10873;51.132;16.848;2023-05-19T04:08:55;5.30;;;2.63;;
21424;SDS011;10873;51.132;16.848;2023-05-19T04:11:21;3.95;;;2.90;;
21424;SDS011;10873;51.132;16.848;2023-05-19T04:13:47;4.55;;;2.67;;
21424;SDS011;10873;51.132;16.848;2023-05-19T04:16:13;4.10;;;2.85;;
21424;SDS011;10873;51.132;16.848;2023-05-19T04:18:41;5.85;;;2.97;;
21424;SDS011;10873;51.132;16.848;2023-05-19T04:21:09;3.97;;;2.70;;
21424;SDS011;10873;51.132;16.848;2023-05-19T04:23:35;4.70;;;2.90;;
21424;SDS011;10873;51.132;16.848;2023-05-19T04:26:01;5.45;;;3.10;;
21424;SDS011;10873;51.132;16.848;2023-05-19T04:28:28;4.07;;;2.78;;
21424;SDS011;10873;51.132;16.848;2023-05-19T04:30:54;5.88;;;2.90;;
21424;SDS011;10873;51.132;16.848;2023-05-19T04:33:23;5.82;;;2.70;;
21424;SDS011;10873;51.132;16.848;2023-05-19T04:35:50;5.68;;;3.05;;
21424;SDS011;10873;51.132;16.848;2023-05-19T04:38:16;4.07;;;2.85;;
21424;SDS011;10873;51.132;16.848;2023-05-19T04:40:44;3.92;;;2.70;;
21424;SDS011;10873;51.132;16.848;2023-05-19T04:43:10;4.47;;;2.83;;
21424;SDS011;10873;51.132;16.848;2023-05-19T04:45:36;6.32;;;2.58;;
21424;SDS011;10873;51.132;16.848;2023-05-19T04:48:02;6.25;;;2.78;;
21424;SDS011;10873;51.132;16.848;2023-05-19T04:50:29;6.93;;;2.67;;
21424;SDS011;10873;51.132;16.848;2023-05-19T04:52:58;5.53;;;3.20;;
21424;SDS011;10873;51.132;16.848;2023-05-19T04:55:24;4.38;;;2.72;;
21424;SDS011;10873;51.132;16.848;2023-05-19T04:57:50;4.00;;;3.15;;
21424;SDS011;10873;51.132;16.848;2023-05-19T05:00:16;6.43;;;2.75;;
21424;SDS011;10873;51.132;16.848;2023-05-19T05:02:43;5.20;;;2.72;;
21424;SDS011;10873;51.132;16.848;2023-05-19T05:05:09;4.65;;;2.65;;
21424;SDS011;10873;51.132;16.848;2023-05-19T05:07:35;4.95;;;2.80;;
21424;SDS011;10873;51.132;16.848;2023-05-19T05:10:03;3.92;;;2.72;;
21424;SDS011;10873;51.132;16.848;2023-05-19T05:12:30;3.85;;;2.60;;
21424;SDS011;10873;51.132;16.848;2023-05-19T05:14:57;4.95;;;2.83;;
21424;SDS011;10873;51.132;16.848;2023-05-19T05:17:24;4.15;;;2.40;;
21424;SDS011;10873;51.132;16.848;2023-05-19T05:19:51;4.35;;;2.60;;
21424;SDS011;10873;51.132;16.848;2023-05-19T05:22:18;2.72;;;2.20;;
21424;SDS011;10873;51.132;16.848;2023-05-19T05:24:44;3.67;;;2.67;;
21424;SDS011;10873;51.132;16.848;2023-05-19T05:27:12;4.82;;;2.80;;
21424;SDS011;10873;51.132;16.848;2023-05-19T05:29:38;3.50;;;2.35;;
21424;SDS011;10873;51.132;16.848;2023-05-19T05:32:05;6.22;;;2.80;;
21424;SDS011;10873;51.132;16.848;2023-05-19T05:34:32;3.53;;;2.60;;
21424;SDS011;10873;51.132;16.848;2023-05-19T05:36:58;2.38;;;2.00;;
21424;SDS011;10873;51.132;16.848;2023-05-19T05:39:24;3.47;;;2.25;;
21424;SDS011;10873;51.132;16.848;2023-05-19T05:41:51;4.57;;;2.63;;
21424;SDS011;10873;51.132;16.848;2023-05-19T05:44:18;4.18;;;2.47;;
21424;SDS011;10873;51.132;16.848;2023-05-19T05:46:45;3.85;;;2.40;;
21424;SDS011;10873;51.132;16.848;2023-05-19T05:49:11;7.50;;;2.55;;
21424;SDS011;10873;51.132;16.848;2023-05-19T05:51:38;4.35;;;2.60;;
21424;SDS011;10873;51.132;16.848;2023-05-19T05:54:05;3.97;;;2.45;;
21424;SDS011;10873;51.132;16.848;2023-05-19T05:56:32;4.57;;;2.35;;
21424;SDS011;10873;51.132;16.848;2023-05-19T05:58:58;4.55;;;2.55;;
21424;SDS011;10873;51.132;16.848;2023-05-19T06:01:26;5.15;;;2.17;;
21424;SDS011;10873;51.132;16.848;2023-05-19T06:03:52;5.68;;;2.35;;
21424;SDS011;10873;51.132;16.848;2023-05-19T06:06:18;3.95;;;2.78;;
21424;SDS011;10873;51.132;16.848;2023-05-19T06:08:44;6.07;;;2.47;;
21424;SDS011;10873;51.132;16.848;2023-05-19T06:11:10;6.82;;;2.45;;
21424;SDS011;10873;51.132;16.848;2023-05-19T06:13:36;4.97;;;2.80;;
21424;SDS011;10873;51.132;16.848;2023-05-19T06:16:03;4.57;;;2.15;;
21424;SDS011;10873;51.132;16.848;2023-05-19T06:18:31;4.43;;;2.42;;
21424;SDS011;10873;51.132;16.848;2023-05-19T06:20:57;14.27;;;3.17;;
21424;SDS011;10873;51.132;16.848;2023-05-19T06:23:23;6.47;;;2.90;;
21424;SDS011;10873;51.132;16.848;2023-05-19T06:25:51;8.02;;;2.92;;
21424;SDS011;10873;51.132;16.848;2023-05-19T06:28:17;6.95;;;2.90;;
21424;SDS011;10873;51.132;16.848;2023-05-19T06:30:43;7.65;;;2.78;;
21424;SDS011;10873;51.132;16.848;2023-05-19T06:33:09;6.50;;;2.63;;
21424;SDS011;10873;51.132;16.848;2023-05-19T06:35:37;7.63;;;2.80;;
21424;SDS011;10873;51.132;16.848;2023-05-19T06:38:03;6.10;;;2.72;;
21424;SDS011;10873;51.132;16.848;2023-05-19T06:40:29;8.15;;;2.75;;
21424;SDS011;10873;51.132;16.848;2023-05-19T06:42:55;6.47;;;2.67;;
21424;SDS011;10873;51.132;16.848;2023-05-19T06:45:22;6.82;;;3.20;;
21424;SDS011;10873;51.132;16.848;2023-05-19T06:47:48;4.82;;;2.55;;
21424;SDS011;10873;51.132;16.848;2023-05-19T06:50:14;9.90;;;3.17;;
21424;SDS011;10873;51.132;16.848;2023-05-19T06:52:41;6.72;;;2.85;;
21424;SDS011;10873;51.132;16.848;2023-05-19T06:55:08;8.13;;;2.85;;
21424;SDS011;10873;51.132;16.848;2023-05-19T06:57:34;8.07;;;3.40;;
21424;SDS011;10873;51.132;16.848;2023-05-19T07:00:00;9.20;;;3.20;;
21424;SDS011;10873;51.132;16.848;2023-05-19T07:02:26;9.32;;;3.50;;
21424;SDS011;10873;51.132;16.848;2023-05-19T07:04:53;10.82;;;3.53;;
21424;SDS011;10873;51.132;16.848;2023-05-19T07:07:18;10.93;;;3.90;;
21424;SDS011;10873;51.132;16.848;2023-05-19T07:09:46;7.18;;;3.45;;
21424;SDS011;10873;51.132;16.848;2023-05-19T07:12:12;9.75;;;4.10;;
21424;SDS011;10873;51.132;16.848;2023-05-19T07:14:38;8.75;;;3.45;;
21424;SDS011;10873;51.132;16.848;2023-05-19T07:17:04;11.35;;;3.80;;
21424;SDS011;10873;51.132;16.848;2023-05-19T07:19:30;16.05;;;4.07;;
21424;SDS011;10873;51.132;16.848;2023-05-19T07:21:56;29.42;;;4.78;;
21424;SDS011;10873;51.132;16.848;2023-05-19T07:24:23;30.73;;;5.50;;
21424;SDS011;10873;51.132;16.848;2023-05-19T07:26:53;21.25;;;4.50;;
21424;SDS011;10873;51.132;16.848;2023-05-19T07:29:19;36.55;;;5.40;;
21424;SDS011;10873;51.132;16.848;2023-05-19T07:31:45;27.42;;;5.13;;
21424;SDS011;10873;51.132;16.848;2023-05-19T07:34:11;17.23;;;4.82;;
21424;SDS011;10873;51.132;16.848;2023-05-19T07:36:37;21.20;;;5.40;;
21424;SDS011;10873;51.132;16.848;2023-05-19T07:39:03;17.05;;;4.72;;
21424;SDS011;10873;51.132;16.848;2023-05-19T07:41:29;13.13;;;4.47;;
21424;SDS011;10873;51.132;16.848;2023-05-19T07:43:56;17.33;;;4.82;;
21424;SDS011;10873;51.132;16.848;2023-05-19T07:46:22;17.63;;;4.90;;
21424;SDS011;10873;51.132;16.848;2023-05-19T07:48:48;13.98;;;4.95;;
21424;SDS011;10873;51.132;16.848;2023-05-19T07:51:14;14.45;;;5.55;;
21424;SDS011;10873;51.132;16.848;2023-05-19T07:53:41;18.42;;;5.20;;
21424;SDS011;10873;51.132;16.848;2023-05-19T07:56:06;15.80;;;4.72;;
21424;SDS011;10873;51.132;16.848;2023-05-19T07:58:33;16.27;;;4.50;;
21424;SDS011;10873;51.132;16.848;2023-05-19T08:01:00;11.23;;;4.22;;
21424;SDS011;10873;51.132;16.848;2023-05-19T08:03:26;11.20;;;4.55;;
21424;SDS011;10873;51.132;16.848;2023-05-19T08:05:53;11.55;;;4.72;;
21424;SDS011;10873;51.132;16.848;2023-05-19T08:08:19;17.67;;;4.78;;
21424;SDS011;10873;51.132;16.848;2023-05-19T08:10:46;13.38;;;4.10;;
21424;SDS011;10873;51.132;16.848;2023-05-19T08:13:12;14.55;;;4.85;;
21424;SDS011;10873;51.132;16.848;2023-05-19T08:15:38;10.95;;;4.00;;
21424;SDS011;10873;51.132;16.848;2023-05-19T08:18:05;13.30;;;4.45;;
21424;SDS011;10873;51.132;16.848;2023-05-19T08:20:31;14.60;;;4.18;;
21424;SDS011;10873;51.132;16.848;2023-05-19T08:22:58;11.57;;;4.03;;
21424;SDS011;10873;51.132;16.848;2023-05-19T08:25:24;13.57;;;4.57;;
21424;SDS011;10873;51.132;16.848;2023-05-19T08:27:50;9.75;;;4.13;;
21424;SDS011;10873;51.132;16.848;2023-05-19T08:30:16;8.48;;;3.85;;
21424;SDS011;10873;51.132;16.848;2023-05-19T08:32:42;11.43;;;3.90;;
21424;SDS011;10873;51.132;16.848;2023-05-19T08:35:10;7.90;;;3.85;;
21424;SDS011;10873;51.132;16.848;2023-05-19T08:37:36;11.40;;;4.22;;
21424;SDS011;10873;51.132;16.848;2023-05-19T08:40:03;11.85;;;3.95;;
21424;SDS011;10873;51.132;16.848;2023-05-19T08:42:30;11.30;;;4.00;;
21424;SDS011;10873;51.132;16.848;2023-05-19T08:44:57;7.47;;;3.45;;
21424;SDS011;10873;51.132;16.848;2023-05-19T08:47:23;9.85;;;3.95;;
21424;SDS011;10873;51.132;16.848;2023-05-19T08:49:51;7.18;;;3.35;;
21424;SDS011;10873;51.132;16.848;2023-05-19T08:52:21;9.20;;;3.92;;
21424;SDS011;10873;51.132;16.848;2023-05-19T08:54:52;9.40;;;3.58;;
21424;SDS011;10873;51.132;16.848;2023-05-19T08:57:25;7.78;;;3.28;;
21424;SDS011;10873;51.132;16.848;2023-05-19T08:59:52;7.30;;;3.45;;
21424;SDS011;10873;51.132;16.848;2023-05-19T09:02:20;9.75;;;3.60;;
21424;SDS011;10873;51.132;16.848;2023-05-19T09:04:46;8.10;;;3.80;;
21424;SDS011;10873;51.132;16.848;2023-05-19T09:07:13;12.00;;;3.53;;
21424;SDS011;10873;51.132;16.848;2023-05-19T09:09:41;9.57;;;3.50;;
21424;SDS011;10873;51.132;16.848;2023-05-19T09:12:08;11.95;;;3.55;;
21424;SDS011;10873;51.132;16.848;2023-05-19T09:14:35;11.18;;;4.78;;
21424;SDS011;10873;51.132;16.848;2023-05-19T09:17:02;13.30;;;6.45;;
21424;SDS011;10873;51.132;16.848;2023-05-19T09:19:43;19.25;;;8.65;;
21424;SDS011;10873;51.132;16.848;2023-05-19T09:22:13;20.65;;;9.45;;
21424;SDS011;10873;51.132;16.848;2023-05-19T09:24:41;20.23;;;10.25;;
21424;SDS011;10873;51.132;16.848;2023-05-19T09:27:08;26.40;;;10.52;;
21424;SDS011;10873;51.132;16.848;2023-05-19T09:29:34;22.92;;;10.35;;
21424;SDS011;10873;51.132;16.848;2023-05-19T09:32:00;22.77;;;11.02;;
21424;SDS011;10873;51.132;16.848;2023-05-19T09:34:29;24.42;;;10.32;;
21424;SDS011;10873;51.132;16.848;2023-05-19T09:36:55;27.15;;;11.05;;
21424;SDS011;10873;51.132;16.848;2023-05-19T09:39:24;21.73;;;11.25;;
21424;SDS011;10873;51.132;16.848;2023-05-19T09:41:52;30.83;;;12.05;;
21424;SDS011;10873;51.132;16.848;2023-05-19T09:44:21;27.70;;;12.63;;
21424;SDS011;10873;51.132;16.848;2023-05-19T09:46:48;26.60;;;12.30;;
21424;SDS011;10873;51.132;16.848;2023-05-19T09:49:18;26.15;;;12.63;;
21424;SDS011;10873;51.132;16.848;2023-05-19T09:51:45;27.27;;;11.30;;
21424;SDS011;10873;51.132;16.848;2023-05-19T09:54:14;19.95;;;11.07;;
21424;SDS011;10873;51.132;16.848;2023-05-19T09:56:40;19.65;;;10.05;;
21424;SDS011;10873;51.132;16.848;2023-05-19T09:59:08;22.48;;;10.70;;
21424;SDS011;10873;51.132;16.848;2023-05-19T10:01:34;19.92;;;9.50;;
21424;SDS011;10873;51.132;16.848;2023-05-19T10:04:04;23.73;;;9.75;;
21424;SDS011;10873;51.132;16.848;2023-05-19T10:06:30;21.08;;;9.05;;
21424;SDS011;10873;51.132;16.848;2023-05-19T10:08:56;20.50;;;9.48;;
21424;SDS011;10873;51.132;16.848;2023-05-19T10:11:24;17.63;;;9.07;;
21424;SDS011;10873;51.132;16.848;2023-05-19T10:13:51;16.33;;;8.93;;
21424;SDS011;10873;51.132;16.848;2023-05-19T10:16:19;19.38;;;8.85;;
21424;SDS011;10873;51.132;16.848;2023-05-19T10:18:47;23.23;;;9.75;;
21424;SDS011;10873;51.132;16.848;2023-05-19T10:21:17;24.60;;;10.25;;
21424;SDS011;10873;51.132;16.848;2023-05-19T10:23:43;24.88;;;10.63;;
21424;SDS011;10873;51.132;16.848;2023-05-19T10:26:09;23.98;;;11.35;;
21424;SDS011;10873;51.132;16.848;2023-05-19T10:28:36;24.55;;;11.23;;
21424;SDS011;10873;51.132;16.848;2023-05-19T10:31:08;23.55;;;10.90;;
21424;SDS011;10873;51.132;16.848;2023-05-19T10:33:45;22.33;;;10.32;;
21424;SDS011;10873;51.132;16.848;2023-05-19T10:36:32;21.35;;;9.77;;
21424;SDS011;10873;51.132;16.848;2023-05-19T10:39:10;24.63;;;9.43;;
21424;SDS011;10873;51.132;16.848;2023-05-19T10:41:46;18.83;;;9.52;;
21424;SDS011;10873;51.132;16.848;2023-05-19T10:44:20;20.00;;;9.68;;
21424;SDS011;10873;51.132;16.848;2023-05-19T10:46:52;22.33;;;9.30;;
21424;SDS011;10873;51.132;16.848;2023-05-19T10:49:20;19.98;;;9.25;;
21424;SDS011;10873;51.132;16.848;2023-05-19T10:51:50;21.17;;;9.32;;
21424;SDS011;10873;51.132;16.848;2023-05-19T10:54:25;21.98;;;9.27;;
21424;SDS011;10873;51.132;16.848;2023-05-19T10:57:05;20.33;;;8.70;;
21424;SDS011;10873;51.132;16.848;2023-05-19T10:59:33;15.90;;;8.68;;
21424;SDS011;10873;51.132;16.848;2023-05-19T11:02:04;19.25;;;9.50;;
21424;SDS011;10873;51.132;16.848;2023-05-19T11:04:46;20.05;;;8.65;;
21424;SDS011;10873;51.132;16.848;2023-05-19T11:07:16;21.92;;;9.23;;
21424;SDS011;10873;51.132;16.848;2023-05-19T11:09:43;15.93;;;8.38;;
21424;SDS011;10873;51.132;16.848;2023-05-19T11:12:14;18.27;;;8.93;;
21424;SDS011;10873;51.132;16.848;2023-05-19T11:14:45;19.63;;;8.80;;
21424;SDS011;10873;51.132;16.848;2023-05-19T11:17:12;16.40;;;7.88;;
21424;SDS011;10873;51.132;16.848;2023-05-19T11:19:39;14.93;;;7.82;;
21424;SDS011;10873;51.132;16.848;2023-05-19T11:22:21;18.67;;;7.97;;
21424;SDS011;10873;51.132;16.848;2023-05-19T11:24:49;17.67;;;7.93;;
21424;SDS011;10873;51.132;16.848;2023-05-19T11:27:22;20.20;;;8.77;;
21424;SDS011;10873;51.132;16.848;2023-05-19T11:29:50;18.63;;;8.43;;
21424;SDS011;10873;51.132;16.848;2023-05-19T11:32:18;17.60;;;8.15;;
21424;SDS011;10873;51.132;16.848;2023-05-19T11:34:45;16.58;;;8.15;;
21424;SDS011;10873;51.132;16.848;2023-05-19T11:37:14;14.50;;;7.60;;
21424;SDS011;10873;51.132;16.848;2023-05-19T11:39:40;15.55;;;7.45;;
21424;SDS011;10873;51.132;16.848;2023-05-19T11:42:08;15.15;;;6.95;;
21424;SDS011;10873;51.132;16.848;2023-05-19T11:44:35;17.58;;;7.95;;
21424;SDS011;10873;51.132;16.848;2023-05-19T11:47:03;15.57;;;7.35;;
21424;SDS011;10873;51.132;16.848;2023-05-19T11:49:29;13.35;;;7.03;;
21424;SDS011;10873;51.132;16.848;2023-05-19T11:51:56;15.40;;;7.63;;
21424;SDS011;10873;51.132;16.848;2023-05-19T11:54:28;18.48;;;7.30;;
21424;SDS011;10873;51.132;16.848;2023-05-19T11:56:56;18.17;;;6.93;;
21424;SDS011;10873;51.132;16.848;2023-05-19T11:59:29;19.92;;;7.13;;
21424;SDS011;10873;51.132;16.848;2023-05-19T12:01:57;16.00;;;7.55;;
21424;SDS011;10873;51.132;16.848;2023-05-19T12:04:25;12.77;;;6.78;;
21424;SDS011;10873;51.132;16.848;2023-05-19T12:06:51;14.68;;;7.18;;
21424;SDS011;10873;51.132;16.848;2023-05-19T12:09:17;14.57;;;6.57;;
21424;SDS011;10873;51.132;16.848;2023-05-19T12:11:45;13.85;;;6.90;;
21424;SDS011;10873;51.132;16.848;2023-05-19T12:14:11;13.13;;;6.55;;
21424;SDS011;10873;51.132;16.848;2023-05-19T12:16:38;13.82;;;6.75;;
21424;SDS011;10873;51.132;16.848;2023-05-19T12:19:04;15.27;;;6.93;;
21424;SDS011;10873;51.132;16.848;2023-05-19T12:21:31;12.15;;;6.43;;
21424;SDS011;10873;51.132;16.848;2023-05-19T12:23:57;18.27;;;6.63;;
21424;SDS011;10873;51.132;16.848;2023-05-19T12:26:24;12.35;;;6.32;;
21424;SDS011;10873;51.132;16.848;2023-05-19T12:28:51;11.88;;;6.10;;
21424;SDS011;10873;51.132;16.848;2023-05-19T12:31:18;16.15;;;6.60;;
21424;SDS011;10873;51.132;16.848;2023-05-19T12:33:47;13.82;;;6.93;;
21424;SDS011;10873;51.132;16.848;2023-05-19T12:36:16;15.23;;;6.45;;
21424;SDS011;10873;51.132;16.848;2023-05-19T12:38:42;12.07;;;5.57;;
21424;SDS011;10873;51.132;16.848;2023-05-19T12:41:09;14.93;;;6.35;;
21424;SDS011;10873;51.132;16.848;2023-05-19T12:43:36;12.93;;;6.10;;
21424;SDS011;10873;51.132;16.848;2023-05-19T12:46:11;17.05;;;6.10;;
21424;SDS011;10873;51.132;16.848;2023-05-19T12:48:39;10.95;;;6.00;;
21424;SDS011;10873;51.132;16.848;2023-05-19T12:51:06;12.68;;;6.20;;
21424;SDS011;10873;51.132;16.848;2023-05-19T12:53:31;14.68;;;6.28;;
21424;SDS011;10873;51.132;16.848;2023-05-19T12:55:59;11.55;;;6.10;;
21424;SDS011;10873;51.132;16.848;2023-05-19T12:58:25;20.02;;;6.07;;
21424;SDS011;10873;51.132;16.848;2023-05-19T13:00:51;16.52;;;5.50;;
21424;SDS011;10873;51.132;16.848;2023-05-19T13:03:25;9.15;;;5.55;;
21424;SDS011;10873;51.132;16.848;2023-05-19T13:05:51;9.32;;;5.28;;
21424;SDS011;10873;51.132;16.848;2023-05-19T13:08:17;8.52;;;5.45;;
21424;SDS011;10873;51.132;16.848;2023-05-19T13:10:45;10.23;;;5.13;;
21424;SDS011;10873;51.132;16.848;2023-05-19T13:13:13;10.13;;;4.82;;
21424;SDS011;10873;51.132;16.848;2023-05-19T13:15:40;10.70;;;5.07;;
21424;SDS011;10873;51.132;16.848;2023-05-19T13:18:07;10.48;;;4.63;;
21424;SDS011;10873;51.132;16.848;2023-05-19T13:20:36;9.82;;;4.70;;
21424;SDS011;10873;51.132;16.848;2023-05-19T13:23:03;8.30;;;4.93;;
21424;SDS011;10873;51.132;16.848;2023-05-19T13:25:31;10.57;;;5.28;;
21424;SDS011;10873;51.132;16.848;2023-05-19T13:27:58;8.15;;;4.88;;
21424;SDS011;10873;51.132;16.848;2023-05-19T13:30:25;10.18;;;5.10;;
21424;SDS011;10873;51.132;16.848;2023-05-19T13:32:52;8.80;;;4.85;;
21424;SDS011;10873;51.132;16.848;2023-05-19T13:35:18;8.30;;;5.15;;
21424;SDS011;10873;51.132;16.848;2023-05-19T13:37:45;10.13;;;4.82;;
21424;SDS011;10873;51.132;16.848;2023-05-19T13:40:13;9.00;;;4.97;;
21424;SDS011;10873;51.132;16.848;2023-05-19T13:42:41;9.15;;;5.05;;
21424;SDS011;10873;51.132;16.848;2023-05-19T13:45:08;10.25;;;5.10;;
21424;SDS011;10873;51.132;16.848;2023-05-19T13:47:34;11.75;;;5.30;;
21424;SDS011;10873;51.132;16.848;2023-05-19T13:50:01;7.80;;;4.85;;
21424;SDS011;10873;51.132;16.848;2023-05-19T13:52:31;8.68;;;5.40;;
21424;SDS011;10873;51.132;16.848;2023-05-19T13:54:59;9.75;;;5.70;;
21424;SDS011;10873;51.132;16.848;2023-05-19T13:57:25;7.35;;;4.80;;
21424;SDS011;10873;51.132;16.848;2023-05-19T13:59:52;10.90;;;5.05;;
21424;SDS011;10873;51.132;16.848;2023-05-19T14:02:18;10.82;;;5.85;;
21424;SDS011;10873;51.132;16.848;2023-05-19T14:04:45;7.82;;;5.40;;
21424;SDS011;10873;51.132;16.848;2023-05-19T14:07:11;9.23;;;5.55;;
21424;SDS011;10873;51.132;16.848;2023-05-19T14:09:37;7.93;;;5.45;;
21424;SDS011;10873;51.132;16.848;2023-05-19T14:12:05;9.57;;;5.45;;
21424;SDS011;10873;51.132;16.848;2023-05-19T14:14:31;11.13;;;5.72;;
21424;SDS011;10873;51.132;16.848;2023-05-19T14:16:57;9.10;;;5.50;;
21424;SDS011;10873;51.132;16.848;2023-05-19T14:19:23;10.35;;;5.03;;
21424;SDS011;10873;51.132;16.848;2023-05-19T14:21:54;11.82;;;5.50;;
21424;SDS011;10873;51.132;16.848;2023-05-19T14:24:20;9.15;;;4.88;;
21424;SDS011;10873;51.132;16.848;2023-05-19T14:26:46;10.15;;;5.75;;
21424;SDS011;10873;51.132;16.848;2023-05-19T14:29:13;9.10;;;4.88;;
21424;SDS011;10873;51.132;16.848;2023-05-19T14:31:39;10.25;;;4.63;;
21424;SDS011;10873;51.132;16.848;2023-05-19T14:34:06;11.52;;;4.93;;